createdAt,value
2022-09-25T00:01:30.774Z,17.23
2022-09-25T00:03:57.300Z,15.83
2022-09-25T00:06:24.854Z,15.80
2022-09-25T00:08:52.118Z,16.77
2022-09-25T00:11:27.768Z,17.70
2022-09-25T00:13:54.766Z,16.80
2022-09-25T00:16:22.629Z,15.70
2022-09-25T00:19:07.535Z,18.70
2022-09-25T00:21:34.891Z,20.03
2022-09-25T00:24:03.573Z,21.10
2022-09-25T00:26:31.605Z,20.17
2022-09-25T00:29:01.134Z,21.13
2022-09-25T00:31:28.811Z,22.13
2022-09-25T00:33:57.760Z,21.30
2022-09-25T00:36:24.103Z,21.00
2022-09-25T00:38:50.706Z,21.17
2022-09-25T00:41:18.100Z,21.40
2022-09-25T00:43:50.647Z,21.23
2022-09-25T00:46:23.105Z,19.17
2022-09-25T00:48:49.527Z,20.63
2022-09-25T00:51:16.937Z,19.50
2022-09-25T00:53:43.308Z,19.00
2022-09-25T00:56:11.985Z,18.93
2022-09-25T00:58:39.888Z,19.00
2022-09-25T01:01:07.160Z,19.20
2022-09-25T01:03:34.175Z,19.67
2022-09-25T01:06:00.929Z,19.47
2022-09-25T01:08:28.305Z,17.50
2022-09-25T01:10:54.683Z,18.07
2022-09-25T01:13:21.130Z,18.43
2022-09-25T01:15:57.518Z,19.50
2022-09-25T01:18:35.875Z,18.57
2022-09-25T01:21:02.211Z,18.70
2022-09-25T01:23:46.883Z,18.60
2022-09-25T01:26:16.343Z,18.33
2022-09-25T01:28:50.598Z,18.60
2022-09-25T01:31:21.884Z,16.40
2022-09-25T01:33:51.586Z,19.23
2022-09-25T01:36:29.953Z,19.53
2022-09-25T01:39:10.699Z,18.27
2022-09-25T01:41:47.941Z,19.53
2022-09-25T01:44:28.835Z,21.07
2022-09-25T01:46:57.086Z,21.10
2022-09-25T01:49:38.172Z,18.43
2022-09-25T01:52:07.278Z,18.50
2022-09-25T01:54:36.973Z,19.97
2022-09-25T01:57:07.314Z,19.70
2022-09-25T01:59:56.424Z,20.77
2022-09-25T02:02:26.154Z,18.87
2022-09-25T02:04:58.539Z,19.60
2022-09-25T02:07:28.422Z,18.97
2022-09-25T02:09:56.345Z,19.50
2022-09-25T02:12:34.361Z,19.23
2022-09-25T02:15:08.220Z,22.07
2022-09-25T02:17:56.378Z,19.23
2022-09-25T02:20:33.311Z,19.33
2022-09-25T02:23:32.411Z,18.67
2022-09-25T02:26:09.663Z,17.53
2022-09-25T02:28:36.351Z,16.90
2022-09-25T02:31:05.151Z,17.63
2022-09-25T02:33:31.566Z,16.17
2022-09-25T02:36:00.196Z,16.97
2022-09-25T02:38:27.047Z,16.77
2022-09-25T02:40:56.319Z,18.20
2022-09-25T02:43:35.458Z,17.23
2022-09-25T02:46:23.030Z,15.13
2022-09-25T02:48:59.230Z,17.37
2022-09-25T02:51:44.200Z,18.60
2022-09-25T02:54:21.411Z,16.70
2022-09-25T02:57:17.244Z,17.30
2022-09-25T02:59:51.038Z,15.20
2022-09-25T03:02:17.849Z,16.90
2022-09-25T03:04:48.210Z,16.07
2022-09-25T03:07:15.842Z,17.00
2022-09-25T03:09:44.665Z,16.40
2022-09-25T03:12:11.749Z,16.07
2022-09-25T03:14:38.140Z,16.43
2022-09-25T03:17:05.321Z,16.37
2022-09-25T03:19:31.723Z,17.53
2022-09-25T03:21:58.151Z,16.40
2022-09-25T03:24:24.774Z,15.70
2022-09-25T03:26:51.552Z,16.83
2022-09-25T03:29:17.944Z,17.80
2022-09-25T03:31:45.622Z,16.53
2022-09-25T03:34:13.390Z,16.50
2022-09-25T03:36:40.188Z,18.27
2022-09-25T03:39:06.850Z,17.97
2022-09-25T03:41:34.563Z,18.13
2022-09-25T03:44:01.278Z,19.00
2022-09-25T03:46:29.422Z,19.97
2022-09-25T03:48:56.828Z,17.90
2022-09-25T03:51:23.747Z,19.43
2022-09-25T03:53:51.011Z,17.43
2022-09-25T03:56:20.363Z,20.47
2022-09-25T03:58:47.519Z,19.77
2022-09-25T04:01:14.535Z,20.43
2022-09-25T04:03:41.116Z,18.17
2022-09-25T04:06:08.496Z,19.93
2022-09-25T04:08:35.764Z,20.70
2022-09-25T04:11:02.158Z,21.23
2022-09-25T04:13:30.107Z,21.40
2022-09-25T04:15:57.479Z,18.83
2022-09-25T04:18:24.811Z,22.67
2022-09-25T04:20:51.623Z,22.43
2022-09-25T04:23:18.159Z,22.00
2022-09-25T04:25:45.883Z,20.00
2022-09-25T04:28:12.368Z,20.53
2022-09-25T04:30:38.702Z,20.23
2022-09-25T04:33:23.710Z,20.57
2022-09-25T04:35:50.362Z,20.33
2022-09-25T04:38:16.706Z,20.07
2022-09-25T04:40:43.164Z,20.07
2022-09-25T04:43:09.515Z,21.17
2022-09-25T04:45:37.053Z,23.20
2022-09-25T04:48:04.068Z,21.70
2022-09-25T04:50:30.555Z,21.27
2022-09-25T04:52:57.327Z,21.23
2022-09-25T04:55:24.396Z,20.27
2022-09-25T04:57:58.788Z,19.67
2022-09-25T05:00:27.045Z,20.13
2022-09-25T05:02:53.459Z,19.57
2022-09-25T05:05:20.101Z,20.17
2022-09-25T05:07:56.701Z,19.83
2022-09-25T05:10:23.844Z,18.83
2022-09-25T05:13:03.256Z,18.57
2022-09-25T05:15:31.696Z,18.37
2022-09-25T05:18:02.451Z,19.83
2022-09-25T05:20:28.985Z,20.93
2022-09-25T05:22:56.439Z,20.87
2022-09-25T05:25:23.313Z,20.80
2022-09-25T05:27:51.106Z,19.90
2022-09-25T05:30:17.614Z,19.63
2022-09-25T05:32:50.556Z,20.97
2022-09-25T05:35:20.761Z,35.60
2022-09-25T05:37:47.164Z,22.03
2022-09-25T05:40:15.679Z,20.17
2022-09-25T05:42:44.112Z,19.20
2022-09-25T05:45:11.739Z,19.00
2022-09-25T05:47:38.580Z,19.13
2022-09-25T05:50:05.158Z,20.00
2022-09-25T05:52:31.753Z,21.20
2022-09-25T05:54:58.164Z,20.27
2022-09-25T05:57:24.523Z,19.27
2022-09-25T05:59:50.960Z,19.37
2022-09-25T06:02:17.353Z,18.03
2022-09-25T06:04:43.734Z,18.73
2022-09-25T06:07:10.087Z,19.17
2022-09-25T06:09:36.454Z,18.87
2022-09-25T06:12:03.066Z,19.20
2022-09-25T06:14:30.450Z,19.47
2022-09-25T06:16:57.835Z,17.73
2022-09-25T06:19:24.352Z,18.67
2022-09-25T06:21:50.806Z,18.03
2022-09-25T06:24:19.727Z,17.70
2022-09-25T06:26:46.087Z,18.93
2022-09-25T06:29:12.411Z,19.00
2022-09-25T06:31:39.332Z,20.90
2022-09-25T06:34:06.171Z,18.50
2022-09-25T06:36:33.232Z,19.83
2022-09-25T06:38:59.554Z,19.93
2022-09-25T06:41:25.911Z,20.93
2022-09-25T06:43:52.461Z,20.80
2022-09-25T06:46:20.151Z,19.20
2022-09-25T06:48:56.180Z,18.90
2022-09-25T06:51:23.240Z,20.47
2022-09-25T06:53:53.157Z,22.43
2022-09-25T06:56:19.854Z,20.77
2022-09-25T06:58:46.232Z,21.90
2022-09-25T07:01:13.887Z,21.07
2022-09-25T07:03:46.655Z,20.87
2022-09-25T07:06:14.354Z,20.23
2022-09-25T07:08:41.994Z,23.73
2022-09-25T07:11:08.380Z,22.60
2022-09-25T07:13:35.608Z,20.83
2022-09-25T07:16:03.600Z,21.30
2022-09-25T07:18:29.982Z,23.67
2022-09-25T07:21:00.427Z,22.43
2022-09-25T07:23:27.003Z,23.43
2022-09-25T07:25:53.353Z,21.63
2022-09-25T07:28:20.386Z,21.77
2022-09-25T07:30:48.213Z,21.70
2022-09-25T07:33:14.886Z,18.70
2022-09-25T07:35:41.485Z,19.80
2022-09-25T07:38:07.822Z,18.43
2022-09-25T07:40:35.580Z,20.47
2022-09-25T07:43:10.155Z,17.27
2022-09-25T07:45:36.968Z,17.90
2022-09-25T07:48:04.030Z,16.47
2022-09-25T07:50:31.387Z,22.10
2022-09-25T07:52:58.163Z,18.17
2022-09-25T07:55:24.861Z,26.90
2022-09-25T07:57:52.117Z,15.73
2022-09-25T08:00:18.807Z,15.20
2022-09-25T08:02:45.226Z,12.23
2022-09-25T08:05:11.964Z,12.43
2022-09-25T08:07:38.424Z,11.37
2022-09-25T08:10:05.013Z,10.80
2022-09-25T08:12:31.347Z,8.57
2022-09-25T08:14:57.952Z,8.07
2022-09-25T08:17:24.322Z,7.20
2022-09-25T08:19:50.651Z,5.97
2022-09-25T08:22:17.202Z,5.70
2022-09-25T08:24:43.573Z,6.13
2022-09-25T08:27:09.931Z,4.93
2022-09-25T08:29:36.277Z,4.50
2022-09-25T08:32:02.611Z,5.20
2022-09-25T08:34:40.653Z,4.80
2022-09-25T08:37:08.365Z,4.13
2022-09-25T08:39:34.838Z,4.83
2022-09-25T08:42:01.989Z,6.27
2022-09-25T08:44:40.138Z,6.67
2022-09-25T08:47:29.859Z,7.87
2022-09-25T08:50:14.983Z,73.20
2022-09-25T08:52:43.489Z,17.13
2022-09-25T08:55:19.173Z,12.57
2022-09-25T08:57:45.894Z,8.63
2022-09-25T09:00:20.696Z,8.27
2022-09-25T09:02:50.462Z,8.70
2022-09-25T09:05:20.658Z,10.33
2022-09-25T09:07:50.174Z,9.77
2022-09-25T09:10:19.616Z,9.43
2022-09-25T09:12:48.594Z,10.70
2022-09-25T09:15:34.312Z,10.43
2022-09-25T09:18:05.647Z,8.33
2022-09-25T09:20:39.684Z,8.77
2022-09-25T09:23:08.473Z,8.77
2022-09-25T09:25:49.418Z,9.30
2022-09-25T09:28:54.246Z,27.77
2022-09-25T09:31:32.938Z,6.87
2022-09-25T09:33:59.363Z,6.97
2022-09-25T09:36:36.255Z,6.90
2022-09-25T09:39:12.715Z,7.30
2022-09-25T09:41:59.319Z,6.80
2022-09-25T09:44:44.449Z,6.33
2022-09-25T09:47:19.944Z,6.40
2022-09-25T09:49:55.455Z,7.13
2022-09-25T09:52:35.902Z,7.30
2022-09-25T09:55:05.690Z,6.97
2022-09-25T09:57:41.283Z,6.80
2022-09-25T10:00:14.980Z,7.07
2022-09-25T10:02:41.456Z,7.10
2022-09-25T10:05:10.259Z,7.87
2022-09-25T10:07:38.475Z,7.80
2022-09-25T10:10:14.985Z,8.40
2022-09-25T10:12:43.783Z,9.03
2022-09-25T10:15:18.005Z,9.73
2022-09-25T10:17:44.356Z,9.87
2022-09-25T10:20:19.702Z,10.90
2022-09-25T10:22:47.162Z,45.07
2022-09-25T10:25:13.619Z,18.13
2022-09-25T10:27:41.631Z,10.40
2022-09-25T10:30:11.262Z,9.93
2022-09-25T10:32:43.531Z,9.17
2022-09-25T10:35:20.359Z,9.63
2022-09-25T10:37:56.267Z,7.70
2022-09-25T10:40:25.730Z,9.23
2022-09-25T10:43:10.915Z,9.13
2022-09-25T10:45:38.628Z,7.03
2022-09-25T10:48:53.065Z,7.60
2022-09-25T10:51:21.381Z,7.87
2022-09-25T10:53:52.057Z,8.30
2022-09-25T10:56:24.486Z,8.13
2022-09-25T10:58:56.717Z,7.10
2022-09-25T11:01:37.477Z,7.13
2022-09-25T11:04:06.062Z,6.83
2022-09-25T11:06:34.813Z,5.90
2022-09-25T11:09:01.316Z,7.40
2022-09-25T11:11:28.151Z,6.67
2022-09-25T11:13:58.221Z,7.43
2022-09-25T11:16:43.531Z,7.27
2022-09-25T11:19:15.299Z,8.03
2022-09-25T11:21:50.598Z,7.23
2022-09-25T11:24:23.242Z,7.07
2022-09-25T11:26:59.999Z,8.13
2022-09-25T11:29:44.914Z,6.87
2022-09-25T11:32:18.031Z,6.73
2022-09-25T11:34:55.012Z,7.40
2022-09-25T11:37:31.131Z,6.17
2022-09-25T11:40:23.685Z,7.70
2022-09-25T11:43:07.531Z,9.03
2022-09-25T11:45:41.122Z,6.53
2022-09-25T11:48:21.616Z,6.97
2022-09-25T11:51:00.431Z,6.80
2022-09-25T11:53:43.667Z,7.33
2022-09-25T11:56:25.601Z,6.37
2022-09-25T11:59:01.679Z,6.57
2022-09-25T12:01:49.351Z,7.87
2022-09-25T12:04:18.498Z,6.57
2022-09-25T12:07:00.366Z,6.80
2022-09-25T12:09:35.724Z,6.67
2022-09-25T12:12:14.422Z,6.07
2022-09-25T12:14:49.771Z,5.83
2022-09-25T12:17:37.602Z,6.00
2022-09-25T12:20:11.636Z,6.23
2022-09-25T12:22:44.273Z,5.90
2022-09-25T12:25:26.274Z,5.70
2022-09-25T12:27:52.663Z,5.70
2022-09-25T12:30:20.346Z,6.07
2022-09-25T12:32:49.741Z,5.10
2022-09-25T12:35:16.179Z,6.07
2022-09-25T12:37:46.706Z,5.43
2022-09-25T12:40:19.162Z,4.80
2022-09-25T12:42:55.803Z,5.00
2022-09-25T12:45:25.162Z,5.20
2022-09-25T12:47:54.570Z,9.07
2022-09-25T12:50:22.761Z,24.83
2022-09-25T12:52:58.833Z,13.80
2022-09-25T12:55:34.298Z,6.90
2022-09-25T12:58:24.906Z,5.13
2022-09-25T13:00:59.620Z,6.17
2022-09-25T13:03:38.806Z,5.37
2022-09-25T13:06:15.328Z,4.70
2022-09-25T13:08:48.055Z,4.80
2022-09-25T13:11:23.191Z,5.20
2022-09-25T13:13:53.690Z,5.37
2022-09-25T13:16:20.309Z,4.63
2022-09-25T13:18:48.527Z,4.90
2022-09-25T13:21:24.136Z,4.20
2022-09-25T13:23:51.841Z,4.50
2022-09-25T13:26:19.048Z,4.00
2022-09-25T13:28:59.256Z,3.57
2022-09-25T13:31:30.418Z,3.20
2022-09-25T13:34:04.921Z,3.43
2022-09-25T13:36:33.091Z,3.30
2022-09-25T13:39:22.636Z,2.43
2022-09-25T13:41:59.244Z,3.00
2022-09-25T13:45:07.901Z,2.80
2022-09-25T13:47:38.345Z,3.20
2022-09-25T13:50:07.459Z,2.60
2022-09-25T13:52:36.944Z,2.73
2022-09-25T13:55:18.455Z,3.07
2022-09-25T13:57:58.500Z,2.70
2022-09-25T14:00:55.899Z,3.30
2022-09-25T14:03:34.536Z,3.57
2022-09-25T14:06:02.099Z,3.57
2022-09-25T14:08:31.116Z,3.27
2022-09-25T14:10:58.471Z,3.33
2022-09-25T14:13:27.028Z,5.20
2022-09-25T14:15:55.116Z,12.30
2022-09-25T14:18:42.062Z,5.33
2022-09-25T14:21:09.896Z,3.80
2022-09-25T14:23:48.176Z,2.43
2022-09-25T14:26:22.268Z,2.63
2022-09-25T14:28:49.764Z,3.40
2022-09-25T14:31:28.173Z,2.23
2022-09-25T14:34:13.532Z,2.77
2022-09-25T14:36:59.103Z,2.67
2022-09-25T14:39:28.796Z,3.20
2022-09-25T14:42:05.243Z,2.07
2022-09-25T14:44:41.109Z,2.27
2022-09-25T14:47:10.256Z,2.63
2022-09-25T14:49:39.349Z,2.50
2022-09-25T14:52:07.794Z,2.63
2022-09-25T14:54:39.958Z,2.13
2022-09-25T14:57:07.752Z,2.13
2022-09-25T14:59:40.244Z,2.33
2022-09-25T15:02:15.856Z,3.03
2022-09-25T15:04:42.292Z,3.10
2022-09-25T15:07:08.621Z,3.73
2022-09-25T15:09:36.756Z,2.73
2022-09-25T15:12:20.215Z,2.83
2022-09-25T15:14:58.796Z,2.80
2022-09-25T15:17:25.366Z,2.13
2022-09-25T15:19:51.871Z,1.90
2022-09-25T15:22:24.433Z,1.83
2022-09-25T15:24:55.151Z,1.60
2022-09-25T15:27:22.674Z,1.60
2022-09-25T15:29:49.482Z,1.60
2022-09-25T15:32:17.901Z,1.53
2022-09-25T15:34:44.398Z,1.77
2022-09-25T15:37:19.118Z,3.17
2022-09-25T15:39:45.549Z,1.73
2022-09-25T15:42:13.377Z,1.90
2022-09-25T15:44:39.720Z,1.50
2022-09-25T15:47:06.622Z,1.57
2022-09-25T15:49:34.919Z,1.90
2022-09-25T15:52:06.377Z,1.73
2022-09-25T15:54:34.689Z,1.27
2022-09-25T15:57:02.596Z,2.67
2022-09-25T15:59:35.450Z,1.57
2022-09-25T16:02:27.670Z,2.30
2022-09-25T16:04:54.410Z,2.10
2022-09-25T16:07:22.154Z,2.30
2022-09-25T16:09:48.498Z,2.40
2022-09-25T16:12:33.254Z,2.37
2022-09-25T16:15:03.522Z,2.10
2022-09-25T16:17:35.186Z,1.90
2022-09-25T16:20:03.322Z,1.63
2022-09-25T16:22:36.119Z,2.27
2022-09-25T16:25:02.735Z,2.27
2022-09-25T16:27:34.121Z,1.67
2022-09-25T16:30:04.342Z,1.67
2022-09-25T16:32:31.878Z,2.07
2022-09-25T16:35:01.845Z,1.63
2022-09-25T16:37:30.295Z,1.67
2022-09-25T16:40:26.651Z,1.90
2022-09-25T16:42:54.763Z,1.90
2022-09-25T16:45:24.204Z,2.30
2022-09-25T16:47:50.797Z,3.50
2022-09-25T16:50:18.195Z,2.17
2022-09-25T16:52:44.778Z,1.40
2022-09-25T16:55:16.203Z,1.63
2022-09-25T16:57:46.124Z,1.63
2022-09-25T17:00:18.182Z,2.43
2022-09-25T17:02:45.588Z,2.20
2022-09-25T17:05:18.846Z,1.87
2022-09-25T17:07:46.079Z,1.63
2022-09-25T17:10:13.155Z,1.60
2022-09-25T17:12:39.528Z,1.53
2022-09-25T17:15:07.390Z,2.10
2022-09-25T17:17:33.867Z,2.17
2022-09-25T17:20:00.283Z,2.33
2022-09-25T17:22:30.255Z,1.63
2022-09-25T17:24:59.119Z,1.80
2022-09-25T17:27:25.971Z,1.77
2022-09-25T17:29:53.202Z,5.57
2022-09-25T17:32:19.525Z,4.27
2022-09-25T17:34:46.475Z,2.67
2022-09-25T17:37:12.946Z,2.43
2022-09-25T17:39:39.312Z,2.20
2022-09-25T17:42:05.801Z,5.27
2022-09-25T17:44:32.200Z,2.47
2022-09-25T17:46:59.579Z,6.23
2022-09-25T17:49:26.188Z,3.37
2022-09-25T17:51:52.868Z,2.23
2022-09-25T17:54:20.071Z,2.70
2022-09-25T17:56:46.501Z,3.43
2022-09-25T17:59:14.569Z,3.40
2022-09-25T18:01:41.218Z,2.70
2022-09-25T18:04:19.406Z,2.40
2022-09-25T18:06:45.825Z,2.20
2022-09-25T18:09:12.258Z,2.10
2022-09-25T18:11:42.688Z,2.50
2022-09-25T18:14:11.212Z,2.70
2022-09-25T18:16:38.179Z,2.87
2022-09-25T18:19:23.019Z,2.97
2022-09-25T18:22:08.084Z,3.03
2022-09-25T18:24:34.467Z,2.70
2022-09-25T18:27:00.864Z,2.77
2022-09-25T18:29:27.215Z,2.93
2022-09-25T18:31:53.629Z,2.63
2022-09-25T18:34:21.773Z,3.10
2022-09-25T18:36:49.944Z,3.07
2022-09-25T18:39:20.118Z,3.70
2022-09-25T18:41:47.934Z,3.10
2022-09-25T18:44:15.136Z,3.40
2022-09-25T18:46:41.584Z,3.07
2022-09-25T18:49:08.726Z,2.93
2022-09-25T18:51:35.447Z,2.60
2022-09-25T18:54:02.162Z,3.23
2022-09-25T18:56:28.486Z,2.97
2022-09-25T18:58:54.813Z,3.93
2022-09-25T19:01:21.397Z,4.30
2022-09-25T19:03:52.070Z,6.10
2022-09-25T19:06:18.828Z,2.90
2022-09-25T19:08:50.459Z,3.67
2022-09-25T19:11:16.810Z,3.20
2022-09-25T19:13:43.458Z,2.50
2022-09-25T19:16:10.002Z,4.63
2022-09-25T19:18:36.713Z,3.00
2022-09-25T19:21:03.894Z,3.00
2022-09-25T19:23:33.929Z,2.87
2022-09-25T19:26:02.723Z,3.03
2022-09-25T19:28:30.121Z,2.70
2022-09-25T19:30:57.585Z,2.37
2022-09-25T19:33:24.047Z,3.83
2022-09-25T19:35:50.396Z,36.93
2022-09-25T19:38:16.725Z,39.77
2022-09-25T19:40:43.122Z,15.50
2022-09-25T19:43:09.726Z,6.20
2022-09-25T19:45:37.154Z,3.83
2022-09-25T19:48:03.608Z,3.83
2022-09-25T19:50:29.952Z,3.70
2022-09-25T19:52:56.356Z,3.07
2022-09-25T19:55:22.726Z,4.07
2022-09-25T19:57:49.074Z,3.30
2022-09-25T20:00:18.243Z,3.90
2022-09-25T20:02:45.698Z,2.80
2022-09-25T20:05:12.215Z,4.13
2022-09-25T20:07:38.620Z,4.07
2022-09-25T20:10:05.165Z,3.00
2022-09-25T20:12:31.519Z,3.13
2022-09-25T20:14:57.860Z,3.67
2022-09-25T20:17:24.243Z,4.03
2022-09-25T20:19:50.574Z,3.97
2022-09-25T20:22:16.935Z,3.93
2022-09-25T20:24:43.327Z,3.80
2022-09-25T20:27:09.704Z,4.10
2022-09-25T20:29:36.136Z,4.17
2022-09-25T20:32:02.482Z,3.47
2022-09-25T20:34:28.831Z,4.60
2022-09-25T20:36:55.722Z,4.30
2022-09-25T20:39:22.263Z,4.07
2022-09-25T20:41:49.501Z,3.90
2022-09-25T20:44:15.971Z,4.03
2022-09-25T20:46:42.521Z,3.47
2022-09-25T20:49:10.137Z,3.83
2022-09-25T20:51:36.905Z,3.60
2022-09-25T20:54:04.766Z,4.10
2022-09-25T20:56:31.964Z,3.97
2022-09-25T20:58:58.834Z,3.63
2022-09-25T21:01:27.291Z,3.23
2022-09-25T21:03:54.136Z,3.83
2022-09-25T21:06:22.099Z,3.80
2022-09-25T21:08:51.292Z,2.80
2022-09-25T21:11:17.632Z,3.10
2022-09-25T21:13:44.305Z,3.00
2022-09-25T21:16:10.634Z,3.20
2022-09-25T21:18:37.139Z,3.80
2022-09-25T21:21:07.433Z,3.07
2022-09-25T21:23:34.075Z,3.80
2022-09-25T21:26:04.695Z,3.40
2022-09-25T21:28:32.061Z,3.17
2022-09-25T21:31:02.878Z,2.90
2022-09-25T21:33:29.352Z,3.20
2022-09-25T21:35:55.702Z,3.00
2022-09-25T21:38:23.309Z,2.73
2022-09-25T21:40:49.707Z,3.43
2022-09-25T21:43:16.079Z,3.00
2022-09-25T21:45:42.489Z,3.20
2022-09-25T21:48:09.042Z,3.13
2022-09-25T21:50:35.375Z,2.93
2022-09-25T21:53:01.711Z,3.10
2022-09-25T21:55:28.035Z,3.40
2022-09-25T21:57:54.411Z,2.90
2022-09-25T22:00:20.765Z,3.13
2022-09-25T22:02:50.250Z,2.83
2022-09-25T22:05:16.703Z,2.97
2022-09-25T22:07:43.103Z,2.93
2022-09-25T22:10:09.585Z,2.70
2022-09-25T22:12:35.955Z,3.50
2022-09-25T22:15:02.411Z,3.10
2022-09-25T22:17:28.772Z,4.07
2022-09-25T22:19:55.103Z,3.90
2022-09-25T22:22:21.481Z,3.90
2022-09-25T22:24:47.835Z,2.97
2022-09-25T22:27:14.270Z,2.93
2022-09-25T22:29:40.632Z,3.43
2022-09-25T22:32:06.959Z,3.20
2022-09-25T22:34:33.295Z,3.47
2022-09-25T22:37:00.517Z,3.57
2022-09-25T22:39:27.510Z,3.67
2022-09-25T22:41:54.579Z,3.07
2022-09-25T22:44:21.697Z,3.57
2022-09-25T22:46:48.199Z,3.43
2022-09-25T22:49:14.599Z,3.60
2022-09-25T22:51:41.181Z,3.47
2022-09-25T22:54:07.698Z,3.97
2022-09-25T22:56:34.666Z,3.43
2022-09-25T22:59:02.552Z,3.30
2022-09-25T23:01:34.188Z,3.43
2022-09-25T23:04:01.949Z,3.33
2022-09-25T23:06:29.677Z,3.30
2022-09-25T23:08:57.023Z,3.23
2022-09-25T23:11:24.027Z,3.40
2022-09-25T23:14:00.894Z,3.53
2022-09-25T23:16:27.808Z,3.37
2022-09-25T23:18:57.864Z,3.20
2022-09-25T23:21:24.651Z,2.83
2022-09-25T23:23:54.703Z,3.83
2022-09-25T23:26:21.064Z,3.53
2022-09-25T23:28:47.516Z,3.17
2022-09-25T23:31:15.538Z,2.97
2022-09-25T23:33:42.370Z,3.50
2022-09-25T23:36:20.324Z,3.27
2022-09-25T23:38:47.424Z,3.30
2022-09-25T23:41:13.957Z,3.10
2022-09-25T23:43:40.318Z,2.97
2022-09-25T23:46:06.705Z,3.13
2022-09-25T23:48:33.342Z,2.97
2022-09-25T23:50:59.763Z,3.07
2022-09-25T23:53:26.107Z,2.83
2022-09-25T23:55:52.434Z,2.43
2022-09-25T23:58:18.786Z,2.63
